createdAt,value
2022-09-12T00:01:31.072Z,100081.69
2022-09-12T00:04:19.356Z,100083.19
2022-09-12T00:07:07.297Z,100073.31
2022-09-12T00:09:55.049Z,100068.06
2022-09-12T00:12:42.909Z,100080.25
2022-09-12T00:15:30.663Z,100087.34
2022-09-12T00:18:18.417Z,100092.16
2022-09-12T00:21:06.765Z,100089.84
2022-09-12T00:23:54.752Z,100083.06
2022-09-12T00:26:42.584Z,100081.84
2022-09-12T00:29:30.925Z,100082.03
2022-09-12T00:32:18.918Z,100079.69
2022-09-12T00:35:07.319Z,100079.53
2022-09-12T00:37:55.118Z,100067.34
2022-09-12T00:40:44.170Z,100078.16
2022-09-12T00:43:44.585Z,100061.91
2022-09-12T00:46:42.383Z,100078.31
2022-09-12T00:49:49.744Z,100054.00
2022-09-12T00:52:44.797Z,100064.50
2022-09-12T00:55:41.529Z,100064.38
2022-09-12T00:58:36.883Z,100066.84
2022-09-12T01:01:25.939Z,100061.88
2022-09-12T01:04:16.997Z,100058.75
2022-09-12T01:07:06.284Z,100051.19
2022-09-12T01:09:54.181Z,100047.97
2022-09-12T01:12:43.760Z,100043.00
2022-09-12T01:15:31.604Z,100040.06
2022-09-12T01:18:41.893Z,100057.53
2022-09-12T01:22:17.254Z,100052.88
2022-09-12T01:25:38.496Z,100050.28
2022-09-12T01:28:58.087Z,100043.75
2022-09-12T01:32:41.961Z,100044.84
2022-09-12T01:36:02.112Z,100042.53
2022-09-12T01:39:00.085Z,100047.66
2022-09-12T01:42:01.356Z,100036.22
2022-09-12T01:45:10.138Z,100033.59
2022-09-12T01:48:08.004Z,100026.19
2022-09-12T01:51:23.686Z,100030.19
2022-09-12T01:54:20.827Z,100037.78
2022-09-12T01:57:20.896Z,100030.06
2022-09-12T02:00:12.975Z,100033.00
2022-09-12T02:03:14.770Z,100023.66
2022-09-12T02:06:18.009Z,100033.13
2022-09-12T02:09:13.787Z,100022.63
2022-09-12T02:12:04.172Z,100027.38
2022-09-12T02:15:01.917Z,100019.63
2022-09-12T02:17:53.033Z,100020.41
2022-09-12T02:20:48.428Z,100027.84
2022-09-12T02:23:43.383Z,100028.44
2022-09-12T02:26:41.303Z,100033.69
2022-09-12T02:29:29.194Z,100028.16
2022-09-12T02:32:38.185Z,100020.41
2022-09-12T02:35:54.355Z,100025.38
2022-09-12T02:38:46.336Z,100015.16
2022-09-12T02:41:34.273Z,100011.91
2022-09-12T02:44:24.481Z,100020.59
2022-09-12T02:47:20.554Z,100016.75
2022-09-12T02:50:09.149Z,100017.66
2022-09-12T02:53:03.769Z,100019.34
2022-09-12T02:55:52.556Z,100025.94
2022-09-12T02:58:40.386Z,100012.59
2022-09-12T03:01:40.975Z,100025.59
2022-09-12T03:05:07.784Z,100025.16
2022-09-12T03:08:16.206Z,100028.81
2022-09-12T03:11:13.330Z,100024.13
2022-09-12T03:14:27.735Z,100020.28
2022-09-12T03:17:42.112Z,100012.69
2022-09-12T03:21:05.599Z,99998.13
2022-09-12T03:24:11.186Z,99995.75
2022-09-12T03:27:16.608Z,100015.28
2022-09-12T03:30:06.201Z,100017.28
2022-09-12T03:32:55.372Z,100008.94
2022-09-12T03:35:43.657Z,100019.50
2022-09-12T03:38:31.392Z,99999.75
2022-09-12T03:41:20.222Z,100013.34
2022-09-12T03:44:07.976Z,100002.34
2022-09-12T03:46:55.729Z,100020.59
2022-09-12T03:49:43.528Z,99994.28
2022-09-12T03:52:31.226Z,100027.69
2022-09-12T03:55:19.283Z,100027.53
2022-09-12T03:58:07.233Z,100023.78
2022-09-12T04:00:54.983Z,100015.94
2022-09-12T04:03:51.558Z,100015.28
2022-09-12T04:06:39.286Z,100023.47
2022-09-12T04:09:26.989Z,100023.59
2022-09-12T04:12:14.887Z,100013.22
2022-09-12T04:15:02.772Z,100014.53
2022-09-12T04:17:50.555Z,100009.88
2022-09-12T04:20:38.279Z,100018.06
2022-09-12T04:23:25.996Z,100012.66
2022-09-12T04:26:16.666Z,100005.72
2022-09-12T04:29:04.616Z,100001.56
2022-09-12T04:31:52.497Z,99991.34
2022-09-12T04:34:40.246Z,100014.59
2022-09-12T04:37:28.090Z,100008.59
2022-09-12T04:40:16.070Z,100020.19
2022-09-12T04:43:04.947Z,100018.38
2022-09-12T04:45:52.690Z,100003.81
2022-09-12T04:48:40.696Z,100015.56
2022-09-12T04:51:31.877Z,100010.97
2022-09-12T04:54:20.569Z,100006.78
2022-09-12T04:57:08.314Z,100009.63
2022-09-12T04:59:56.133Z,100008.66
2022-09-12T05:02:44.077Z,100023.63
2022-09-12T05:05:31.819Z,100014.47
2022-09-12T05:08:19.579Z,100012.75
2022-09-12T05:11:22.734Z,99989.84
2022-09-12T05:14:12.847Z,100010.28
2022-09-12T05:17:01.545Z,100029.78
2022-09-12T05:19:49.655Z,100013.25
2022-09-12T05:22:37.391Z,100023.84
2022-09-12T05:25:25.371Z,100025.03
2022-09-12T05:28:13.082Z,100018.47
2022-09-12T05:31:13.339Z,100034.06
2022-09-12T05:34:01.217Z,100024.66
2022-09-12T05:36:49.274Z,100021.28
2022-09-12T05:39:37.110Z,100034.28
2022-09-12T05:42:24.971Z,99995.66
2022-09-12T05:45:14.166Z,100031.13
2022-09-12T05:48:02.647Z,100036.44
2022-09-12T05:50:50.369Z,100035.38
2022-09-12T05:53:40.284Z,100039.41
2022-09-12T05:56:30.577Z,100033.69
2022-09-12T05:59:23.914Z,100028.78
2022-09-12T06:02:12.240Z,100021.66
2022-09-12T06:04:59.995Z,100029.41
2022-09-12T06:07:48.379Z,100035.94
2022-09-12T06:10:36.600Z,100028.22
2022-09-12T06:13:24.481Z,100041.97
2022-09-12T06:16:18.942Z,100043.78
2022-09-12T06:19:15.968Z,100038.84
2022-09-12T06:22:05.067Z,100045.19
2022-09-12T06:24:56.044Z,100041.88
2022-09-12T06:27:47.523Z,100047.41
2022-09-12T06:30:35.383Z,100044.59
2022-09-12T06:33:23.128Z,100037.28
2022-09-12T06:36:14.438Z,100030.53
2022-09-12T06:39:07.594Z,100026.31
2022-09-12T06:41:55.600Z,100026.81
2022-09-12T06:44:45.958Z,100029.13
2022-09-12T06:47:33.699Z,100032.47
2022-09-12T06:50:23.831Z,100043.53
2022-09-12T06:53:11.552Z,100031.19
2022-09-12T06:56:05.147Z,100040.56
2022-09-12T06:58:54.139Z,100038.75
2022-09-12T07:01:42.333Z,100033.97
2022-09-12T07:04:30.418Z,100037.16
2022-09-12T07:07:18.351Z,100032.22
2022-09-12T07:10:06.797Z,100038.09
2022-09-12T07:12:54.718Z,100021.72
2022-09-12T07:15:42.616Z,100029.94
2022-09-12T07:18:30.926Z,100023.09
2022-09-12T07:21:19.345Z,100026.44
2022-09-12T07:24:09.568Z,100031.69
2022-09-12T07:26:57.663Z,100001.81
2022-09-12T07:29:46.825Z,100025.75
2022-09-12T07:32:34.527Z,100018.31
2022-09-12T07:35:22.435Z,100023.00
2022-09-12T07:38:10.183Z,100020.50
2022-09-12T07:40:58.739Z,100027.47
2022-09-12T07:43:47.286Z,100029.53
2022-09-12T07:46:35.432Z,100026.75
2022-09-12T07:49:23.411Z,100021.06
2022-09-12T07:52:11.186Z,99997.34
2022-09-12T07:54:58.962Z,100016.53
2022-09-12T07:57:50.933Z,100015.78
2022-09-12T08:00:38.639Z,100011.88
2022-09-12T08:03:26.388Z,100016.44
2022-09-12T08:06:20.290Z,100023.78
2022-09-12T08:09:08.227Z,100023.25
2022-09-12T08:11:56.475Z,100024.41
2022-09-12T08:14:44.272Z,100023.19
2022-09-12T08:17:32.052Z,100020.09
2022-09-12T08:20:20.336Z,100030.34
2022-09-12T08:23:08.130Z,100035.94
2022-09-12T08:25:58.508Z,100025.22
2022-09-12T08:28:46.676Z,100028.56
2022-09-12T08:31:36.902Z,100025.63
2022-09-12T08:34:25.099Z,100023.88
2022-09-12T08:37:12.862Z,100025.41
2022-09-12T08:40:00.601Z,100020.28
2022-09-12T08:43:14.610Z,100036.31
2022-09-12T08:46:15.790Z,100040.47
2022-09-12T08:49:05.525Z,100023.78
2022-09-12T08:51:55.179Z,100034.72
2022-09-12T08:54:45.488Z,99992.66
2022-09-12T08:57:33.591Z,100019.47
2022-09-12T09:00:21.965Z,100031.94
2022-09-12T09:03:46.719Z,100027.56
2022-09-12T09:07:18.221Z,100030.06
2022-09-12T09:10:35.208Z,100022.25
2022-09-12T09:13:56.029Z,100018.59
2022-09-12T09:16:46.714Z,100020.28
2022-09-12T09:19:50.520Z,100015.41
2022-09-12T09:23:15.931Z,100024.28
2022-09-12T09:26:18.627Z,100011.97
2022-09-12T09:29:19.383Z,100014.41
2022-09-12T09:32:18.576Z,99985.72
2022-09-12T09:35:19.405Z,100000.78
2022-09-12T09:38:24.739Z,100001.94
2022-09-12T09:41:50.893Z,100005.38
2022-09-12T09:44:39.003Z,99996.25
2022-09-12T09:47:26.990Z,99993.22
2022-09-12T09:50:17.035Z,99990.41
2022-09-12T09:53:11.580Z,99992.25
2022-09-12T09:56:11.420Z,99985.78
2022-09-12T09:59:20.725Z,99978.72
2022-09-12T10:02:14.618Z,99988.06
2022-09-12T10:05:02.290Z,99991.31
2022-09-12T10:07:53.359Z,99960.63
2022-09-12T10:11:06.595Z,99991.66
2022-09-12T10:13:57.627Z,99974.53
2022-09-12T10:16:53.211Z,99981.56
2022-09-12T10:19:41.330Z,99969.91
2022-09-12T10:22:29.808Z,99956.25
2022-09-12T10:25:21.076Z,99965.50
2022-09-12T10:28:27.078Z,99973.69
2022-09-12T10:31:39.071Z,99964.53
2022-09-12T10:34:36.281Z,99957.78
2022-09-12T10:37:33.750Z,99962.91
2022-09-12T10:40:32.688Z,99956.78
2022-09-12T10:43:41.421Z,99945.97
2022-09-12T10:46:31.279Z,99950.56
2022-09-12T10:49:40.085Z,99951.50
2022-09-12T10:52:28.459Z,99932.97
2022-09-12T10:55:16.499Z,99944.56
2022-09-12T10:58:30.193Z,99952.88
2022-09-12T11:01:53.237Z,99952.91
2022-09-12T11:05:03.872Z,99954.09
2022-09-12T11:08:01.528Z,99942.19
2022-09-12T11:11:35.741Z,99941.69
2022-09-12T11:14:58.349Z,99941.50
2022-09-12T11:18:10.066Z,99944.94
2022-09-12T11:21:25.341Z,99945.03
2022-09-12T11:24:32.055Z,99934.50
2022-09-12T11:27:31.564Z,99929.00
2022-09-12T11:30:19.517Z,99929.72
2022-09-12T11:33:42.681Z,99930.41
2022-09-12T11:37:10.348Z,99921.28
2022-09-12T11:40:14.552Z,99924.56
2022-09-12T11:43:36.245Z,99923.44
2022-09-12T11:46:36.812Z,99911.81
2022-09-12T11:49:38.259Z,99905.56
2022-09-12T11:52:35.557Z,99896.66
2022-09-12T11:55:29.875Z,99897.97
2022-09-12T11:58:23.266Z,99889.78
2022-09-12T12:01:47.651Z,99892.78
2022-09-12T12:04:56.217Z,99892.00
2022-09-12T12:07:57.094Z,99906.25
2022-09-12T12:10:49.915Z,99900.25
2022-09-12T12:13:52.107Z,99895.78
2022-09-12T12:16:41.531Z,99894.19
2022-09-12T12:19:37.974Z,99879.78
2022-09-12T12:22:26.193Z,99887.25
2022-09-12T12:25:16.207Z,99887.69
2022-09-12T12:28:06.429Z,99874.34
2022-09-12T12:30:54.365Z,99867.16
2022-09-12T12:33:44.953Z,99871.97
2022-09-12T12:36:38.633Z,99854.16
2022-09-12T12:39:32.357Z,99869.44
2022-09-12T12:42:35.471Z,99866.78
2022-09-12T12:45:29.108Z,99850.69
2022-09-12T12:48:18.836Z,99850.38
2022-09-12T12:51:46.403Z,99838.19
2022-09-12T12:54:40.066Z,99836.28
2022-09-12T12:57:32.015Z,99837.63
2022-09-12T13:00:25.928Z,99831.69
2022-09-12T13:03:30.821Z,99824.28
2022-09-12T13:06:38.707Z,99822.16
2022-09-12T13:09:48.120Z,99804.88
2022-09-12T13:12:44.465Z,99801.00
2022-09-12T13:15:38.268Z,99807.72
2022-09-12T13:18:39.355Z,99793.38
2022-09-12T13:21:27.210Z,99801.00
2022-09-12T13:24:17.187Z,99807.34
2022-09-12T13:27:24.194Z,99795.13
2022-09-12T13:30:15.587Z,99799.69
2022-09-12T13:36:38.907Z,99792.75
2022-09-12T13:39:58.231Z,99786.47
2022-09-12T13:42:49.265Z,99783.72
2022-09-12T13:45:39.345Z,99784.91
2022-09-12T13:48:27.710Z,99773.38
2022-09-12T13:51:29.784Z,99777.59
2022-09-12T13:54:24.346Z,99770.44
2022-09-12T13:57:37.542Z,99776.78
2022-09-12T14:00:25.578Z,99764.84
2022-09-12T14:04:07.101Z,99747.88
2022-09-12T14:06:56.528Z,99739.19
2022-09-12T14:09:53.399Z,99749.63
2022-09-12T14:12:43.618Z,99759.63
2022-09-12T14:15:36.183Z,99760.41
2022-09-12T14:18:33.772Z,99751.06
2022-09-12T14:21:25.949Z,99740.63
2022-09-12T14:24:14.784Z,99733.81
2022-09-12T14:27:02.520Z,99737.13
2022-09-12T14:29:54.287Z,99733.75
2022-09-12T14:32:42.386Z,99734.09
2022-09-12T14:35:32.397Z,99737.22
2022-09-12T14:38:25.313Z,99732.66
2022-09-12T14:41:31.708Z,99716.88
2022-09-12T14:44:27.672Z,99718.09
2022-09-12T14:47:21.837Z,99720.47
2022-09-12T14:50:32.430Z,99707.53
2022-09-12T14:53:24.837Z,99716.34
2022-09-12T14:56:13.846Z,99704.69
2022-09-12T14:59:33.191Z,99708.84
2022-09-12T15:02:20.856Z,99701.00
2022-09-12T15:05:08.626Z,99692.00
2022-09-12T15:08:01.634Z,99682.31
2022-09-12T15:10:49.591Z,99675.56
2022-09-12T15:13:41.868Z,99686.75
2022-09-12T15:16:29.615Z,99669.25
2022-09-12T15:19:17.611Z,99669.34
2022-09-12T15:22:05.500Z,99677.00
2022-09-12T15:24:53.416Z,99686.44
2022-09-12T15:27:41.231Z,99679.50
2022-09-12T15:30:29.015Z,99665.13
2022-09-12T15:33:24.193Z,99680.47
2022-09-12T15:36:16.569Z,99670.56
2022-09-12T15:39:04.851Z,99673.19
2022-09-12T15:41:53.131Z,99662.09
2022-09-12T15:44:41.727Z,99659.69
2022-09-12T15:47:29.526Z,99660.56
2022-09-12T15:50:17.571Z,99663.69
2022-09-12T15:53:05.408Z,99667.44
2022-09-12T15:55:53.351Z,99652.94
2022-09-12T15:58:57.215Z,99670.00
2022-09-12T16:01:47.033Z,99658.50
2022-09-12T16:04:34.955Z,99630.75
2022-09-12T16:07:22.678Z,99649.25
2022-09-12T16:10:23.844Z,99654.03
2022-09-12T16:13:11.654Z,99615.88
2022-09-12T16:16:01.093Z,99654.03
2022-09-12T16:18:49.240Z,99642.31
2022-09-12T16:21:37.670Z,99641.84
2022-09-12T16:24:25.417Z,99625.31
2022-09-12T16:27:13.199Z,99634.91
2022-09-12T16:30:01.144Z,99634.78
2022-09-12T16:32:49.301Z,99629.31
2022-09-12T16:35:37.096Z,99638.56
2022-09-12T16:38:24.934Z,99624.59
2022-09-12T16:41:14.104Z,99634.38
2022-09-12T16:44:02.020Z,99623.91
2022-09-12T16:46:50.377Z,99621.94
2022-09-12T16:49:38.151Z,99620.94
2022-09-12T16:52:25.892Z,99623.75
2022-09-12T16:55:13.599Z,99629.63
2022-09-12T16:58:01.345Z,99620.69
2022-09-12T17:00:49.349Z,99627.81
2022-09-12T17:03:37.154Z,99623.88
2022-09-12T17:06:26.323Z,99627.09
2022-09-12T17:09:18.468Z,99629.06
2022-09-12T17:12:06.340Z,99630.50
2022-09-12T17:14:54.368Z,99637.47
2022-09-12T17:17:42.138Z,99635.78
2022-09-12T17:20:29.983Z,99626.16
2022-09-12T17:23:18.159Z,99619.16
2022-09-12T17:26:07.010Z,99623.72
2022-09-12T17:28:54.699Z,99616.19
2022-09-12T17:31:44.127Z,99624.66
2022-09-12T17:34:31.984Z,99631.91
2022-09-12T17:37:19.806Z,99629.44
2022-09-12T17:40:08.953Z,99599.31
2022-09-12T17:42:56.945Z,99625.16
2022-09-12T17:45:44.677Z,99595.63
2022-09-12T17:48:33.101Z,99615.47
2022-09-12T17:51:24.478Z,99617.66
2022-09-12T17:54:18.212Z,99624.34
2022-09-12T17:57:06.313Z,99620.69
2022-09-12T17:59:54.116Z,99632.25
2022-09-12T18:02:43.004Z,99638.00
2022-09-12T18:05:30.967Z,99629.69
2022-09-12T18:08:19.456Z,99636.72
2022-09-12T18:11:07.756Z,99630.13
2022-09-12T18:13:55.643Z,99632.03
2022-09-12T18:16:44.160Z,99632.28
2022-09-12T18:19:31.994Z,99627.00
2022-09-12T18:22:19.902Z,99623.22
2022-09-12T18:25:08.066Z,99619.25
2022-09-12T18:27:55.856Z,99631.28
2022-09-12T18:30:43.584Z,99640.25
2022-09-12T18:33:32.123Z,99639.56
2022-09-12T18:36:20.860Z,99642.97
2022-09-12T18:39:09.477Z,99627.41
2022-09-12T18:41:57.307Z,99635.34
2022-09-12T18:44:45.053Z,99606.81
2022-09-12T18:47:32.791Z,99618.56
2022-09-12T18:50:22.637Z,99635.91
2022-09-12T18:53:13.327Z,99639.53
2022-09-12T18:56:08.790Z,99628.06
2022-09-12T18:58:57.690Z,99634.47
2022-09-12T19:01:47.247Z,99645.19
2022-09-12T19:04:34.998Z,99624.00
2022-09-12T19:07:22.851Z,99632.19
2022-09-12T19:10:10.597Z,99644.66
2022-09-12T19:12:59.236Z,99617.09
2022-09-12T19:15:47.027Z,99647.97
2022-09-12T19:18:36.908Z,99644.66
2022-09-12T19:21:28.699Z,99642.09
2022-09-12T19:24:17.154Z,99633.44
2022-09-12T19:27:05.294Z,99638.50
2022-09-12T19:29:53.162Z,99608.41
2022-09-12T19:32:40.964Z,99633.13
2022-09-12T19:35:28.786Z,99625.47
2022-09-12T19:38:17.561Z,99625.69
2022-09-12T19:41:10.400Z,99630.56
2022-09-12T19:44:01.452Z,99634.06
2022-09-12T19:46:49.394Z,99626.91
2022-09-12T19:49:37.150Z,99627.66
2022-09-12T19:52:25.007Z,99626.56
2022-09-12T19:55:12.888Z,99629.59
2022-09-12T19:58:00.644Z,99635.44
2022-09-12T20:00:48.378Z,99585.13
2022-09-12T20:03:36.187Z,99606.59
2022-09-12T20:06:24.616Z,99592.03
2022-09-12T20:09:12.306Z,99589.19
2022-09-12T20:12:00.000Z,99592.03
2022-09-12T20:14:47.687Z,99577.03
2022-09-12T20:17:35.750Z,99577.56
2022-09-12T20:20:25.404Z,99589.56
2022-09-12T20:23:13.211Z,99585.44
2022-09-12T20:26:01.947Z,99586.19
2022-09-12T20:28:51.365Z,99577.53
2022-09-12T20:31:41.533Z,99572.94
2022-09-12T20:34:29.338Z,99567.84
2022-09-12T20:37:17.223Z,99570.63
2022-09-12T20:40:05.380Z,99564.72
2022-09-12T20:42:53.330Z,99563.97
2022-09-12T20:45:41.562Z,99575.44
2022-09-12T20:48:30.780Z,99578.97
2022-09-12T20:51:20.192Z,99569.56
2022-09-12T20:54:08.143Z,99566.47
2022-09-12T20:56:55.881Z,99564.75
2022-09-12T20:59:43.661Z,99546.31
2022-09-12T21:02:31.521Z,99549.84
2022-09-12T21:05:19.265Z,99553.47
2022-09-12T21:08:06.976Z,99550.88
2022-09-12T21:10:54.654Z,99558.50
2022-09-12T21:13:42.468Z,99559.28
2022-09-12T21:16:30.329Z,99554.75
2022-09-12T21:19:18.143Z,99546.63
2022-09-12T21:22:05.927Z,99561.38
2022-09-12T21:24:53.672Z,99554.75
2022-09-12T21:27:41.382Z,99556.78
2022-09-12T21:30:29.743Z,99566.94
2022-09-12T21:33:20.149Z,99558.53
2022-09-12T21:36:08.588Z,99538.56
2022-09-12T21:38:59.211Z,99562.28
2022-09-12T21:41:46.932Z,99559.97
2022-09-12T21:44:34.654Z,99557.69
2022-09-12T21:47:22.393Z,99562.47
2022-09-12T21:50:10.761Z,99570.13
2022-09-12T21:52:58.547Z,99559.06
2022-09-12T21:55:46.278Z,99566.75
2022-09-12T21:58:34.691Z,99577.69
2022-09-12T22:01:22.489Z,99569.25
2022-09-12T22:04:10.835Z,99565.72
2022-09-12T22:06:58.532Z,99549.34
2022-09-12T22:09:46.367Z,99551.97
2022-09-12T22:12:34.284Z,99543.28
2022-09-12T22:15:51.194Z,99547.38
2022-09-12T22:18:32.709Z,99546.09
2022-09-12T22:21:24.210Z,99551.97
2022-09-12T22:24:30.347Z,99541.72
2022-09-12T22:27:18.101Z,99557.81
2022-09-12T22:30:07.995Z,99548.13
2022-09-12T22:32:55.773Z,99516.97
2022-09-12T22:35:44.133Z,99533.88
2022-09-12T22:38:31.936Z,99539.91
2022-09-12T22:41:19.657Z,99542.94
2022-09-12T22:44:10.033Z,99522.47
2022-09-12T22:46:57.829Z,99527.78
2022-09-12T22:49:47.617Z,99532.81
2022-09-12T22:52:35.357Z,99529.31
2022-09-12T22:55:23.105Z,99499.44
2022-09-12T22:58:12.087Z,99539.47
2022-09-12T23:01:00.013Z,99529.69
2022-09-12T23:03:47.946Z,99542.53
2022-09-12T23:06:35.808Z,99520.91
2022-09-12T23:09:23.552Z,99502.38
2022-09-12T23:12:11.246Z,99504.66
2022-09-12T23:14:58.971Z,99539.22
2022-09-12T23:17:46.737Z,99538.69
2022-09-12T23:20:34.457Z,99531.00
2022-09-12T23:23:22.189Z,99510.16
2022-09-12T23:26:12.645Z,99532.13
2022-09-12T23:29:02.283Z,99513.16
2022-09-12T23:31:50.049Z,99505.19
2022-09-12T23:34:37.799Z,99518.25
2022-09-12T23:37:26.574Z,99512.03
2022-09-12T23:40:14.551Z,99517.09
2022-09-12T23:43:02.369Z,99511.25
2022-09-12T23:45:50.141Z,99530.31
2022-09-12T23:48:37.943Z,99522.38
2022-09-12T23:51:25.826Z,99497.91
2022-09-12T23:54:13.670Z,99519.53
2022-09-12T23:57:01.412Z,99525.34
2022-09-12T23:59:49.228Z,99514.88
